LEVC Información de aeropuertos

Información de pistas
Pista 04 Longitud 5394 ft Ancho 148 ft
Elevación 205 ft Umbral 0 ft Rumbo 38
Pista 22 Longitud 5394 ft Ancho 148 ft
Elevación 188 ft Umbral 0 ft Rumbo 218
Pista 12 Longitud 8858 ft Ancho 148 ft
Elevación 225 ft Umbral 0 ft Rumbo 116
Pista 30 Longitud 8858 ft Ancho 148 ft
Elevación 172 ft Umbral 0 ft Rumbo 296
Frecuencias
Tipo APP Nombre APP Frequencia 120.1 MHZ
Tipo ATIS Nombre ATIS Frequencia 121.075 MHZ
Tipo GND Nombre GND Frequencia 121.7 MHZ
Tipo TWR Nombre TWR Frequencia 118.55 MHZ
Radioayudas
Tipo NDB Nombre Valencia Frequencia 400 KHZ
Tipo NDB Nombre Valencia Frequencia 340 KHZ
Tipo NDB Nombre Sagunto Frequencia 356 KHZ
Tipo VOR-DME Nombre Valencia Frequencia 116100 KHZ
Información meteorológica y NOTAM
ADDS - METARS form results

(2055 UTC 12 August 2020)
Data provider http://aviationweather.gov/metar/data/
 
METAR text: LEVC 122030Z 00000KT CAVOK 27/22 Q1013 NOSIG
Conditions at: LEVC (VALENCIA (CIV/MI, ES) observed 2030 UTC 12 August 2020
Temperature: 27.0°C (81°F)
Dewpoint: 22.0°C (72°F) [RH = 74%]
Pressure (altimeter): 29.91 inches Hg (1013.0 mb)
Winds: calm
Visibility: 6 or more miles (10+ km)
Ceiling: ceiling and visibility are OK
Clouds: unknown
Weather: no significant weather observed at this time

METAR text: LEVC 122000Z 00000KT 9999 FEW035 27/22 Q1012 NOSIG
Conditions at: LEVC (VALENCIA (CIV/MI, ES) observed 2000 UTC 12 August 2020
Temperature: 27.0°C (81°F)
Dewpoint: 22.0°C (72°F) [RH = 74%]
Pressure (altimeter): 29.88 inches Hg (1012.0 mb)
Winds: calm
Visibility: 6 or more miles (10+ km)
Ceiling: at least 12,000 feet AGL
Clouds: few clouds at 3500 feet AGL
Weather: no significant weather observed at this time

Forecast for: AMD
Text: TAF AMD LEVC 121814Z 1218/1318 VRB04KT 9999 FEW020 TX36/1313Z TN21/1306Z
Forecast period: 1800 UTC 12 August 2020 to 1200 UTC 13 August 2020
Forecast type: FROM: standard forecast or significant change
Winds: variable direction winds at 5 MPH (4 knots; 2.1 m/s)
Visibility: 6 or more miles (10+ km)
Ceiling: at least 12,000 feet AGL
Clouds: few clouds at 2000 feet AGL
Weather: no significant weather forecast for this period
Text: BECMG 1312/1314 12010KT
Forecast period: 1200 to 1800 UTC 13 August 2020
Forecast type: BECOMING: Conditions expected to become as follows by 1400 UTC 13 August 2020
Winds: from the ESE (120 degrees) at 12 MPH (10 knots; 5.1 m/s)
Visibility: 6 or more miles (10+ km)
Ceiling: at least 12,000 feet AGL
Clouds: few clouds at 2000 feet AGL
Weather: no significant weather forecast for this period